Time;durP1;ratioP1;P1;durP2;ratioP2;P2;SDS_P1;SDS_P2;PMS_P1;PMS_P2;Temp;Humidity;BMP_temperature;BMP_pressure;BME280_temperature;BME280_humidity;BME280_pressure;Samples;Min_cycle;Max_cycle;Signal;HPM_P1;HPM_P2
2022/06/24 00:00:33;;;;;;;;;;;16.40;99.90;;;;;;5104152;27;19912;-55
2022/06/24 00:03:17;;;;;;;;;;;16.40;99.90;;;;;;5124736;27;20204;-55
2022/06/24 00:05:58;;;;;;;;;;;16.50;99.90;;;;;;5119812;27;19926;-53
2022/06/24 00:08:47;;;;;;;;;;;16.40;99.90;;;;;;5124657;27;20277;-55
2022/06/24 00:11:29;;;;;;;;;;;16.40;99.90;;;;;;5124054;27;19915;-56
2022/06/24 00:14:10;;;;;;;;;;;16.40;99.90;;;;;;5128448;27;20275;-53
2022/06/24 00:16:59;;;;;;;;;;;16.40;99.90;;;;;;5123485;27;19920;-55
2022/06/24 00:19:54;;;;;;;;;;;16.30;99.90;;;;;;5124560;27;20262;-54
2022/06/24 00:22:42;;;;;;;;;;;16.20;99.90;;;;;;5145381;27;19911;-54
2022/06/24 00:25:23;;;;;;;;;;;16.10;99.90;;;;;;5125128;27;19912;-55
2022/06/24 00:28:05;;;;;;;;;;;16.10;99.90;;;;;;5123472;27;20395;-53
2022/06/24 00:30:46;;;;;;;;;;;16.00;99.90;;;;;;5124250;27;19912;-55
2022/06/24 00:33:32;;;;;;;;;;;16.00;99.90;;;;;;5124429;27;20381;-55
2022/06/24 00:36:13;;;;;;;;;;;16.10;99.90;;;;;;5144775;27;19911;-54
2022/06/24 00:38:53;;;;;;;;;;;16.10;99.90;;;;;;5145077;27;20360;-55
2022/06/24 00:41:35;;;;;;;;;;;16.10;99.90;;;;;;5124077;27;19918;-53
2022/06/24 00:44:29;;;;;;;;;;;16.10;99.90;;;;;;5124024;27;19922;-55
2022/06/24 00:47:10;;;;;;;;;;;16.00;99.90;;;;;;5122975;27;19916;-54
2022/06/24 00:49:53;;;;;;;;;;;16.00;99.90;;;;;;5124217;27;20532;-53
2022/06/24 00:52:38;;;;;;;;;;;16.00;99.90;;;;;;5124636;27;20277;-55
2022/06/24 00:55:19;;;;;;;;;;;16.00;99.90;;;;;;5124274;27;19915;-55
2022/06/24 00:58:01;;;;;;;;;;;15.90;99.90;;;;;;5124740;27;19912;-53
2022/06/24 01:00:42;;;;;;;;;;;15.90;99.90;;;;;;5124330;27;19912;-53
2022/06/24 01:03:35;;;;;;;;;;;15.90;99.90;;;;;;5095830;27;20431;-55
2022/06/24 01:06:15;;;;;;;;;;;15.90;99.90;;;;;;5123102;27;20402;-53
2022/06/24 01:08:55;;;;;;;;;;;15.90;99.90;;;;;;5103963;27;19939;-54
2022/06/24 01:11:36;;;;;;;;;;;15.80;99.90;;;;;;5107018;27;19912;-55
2022/06/24 01:14:16;;;;;;;;;;;15.80;99.90;;;;;;5124232;27;20392;-54
2022/06/24 01:16:56;;;;;;;;;;;15.70;99.90;;;;;;5123578;27;19926;-54
2022/06/24 01:19:36;;;;;;;;;;;15.70;99.90;;;;;;5124468;27;19912;-53
2022/06/24 01:22:20;;;;;;;;;;;15.70;99.90;;;;;;5104504;27;19945;-52
2022/06/24 01:25:00;;;;;;;;;;;15.60;99.90;;;;;;5124969;27;20292;-52
2022/06/24 01:27:40;;;;;;;;;;;15.50;99.90;;;;;;5123747;27;19920;-52
2022/06/24 01:30:20;;;;;;;;;;;15.50;99.90;;;;;;5124808;27;19911;-53
2022/06/24 01:33:00;;;;;;;;;;;15.40;99.90;;;;;;5104010;27;19912;-53
2022/06/24 01:35:39;;;;;;;;;;;15.50;99.90;;;;;;5124478;27;19912;-57
2022/06/24 01:38:19;;;;;;;;;;;15.40;99.90;;;;;;5119733;27;19912;-57
2022/06/24 01:40:59;;;;;;;;;;;15.30;99.90;;;;;;5123510;27;20286;-53
2022/06/24 01:43:39;;;;;;;;;;;15.30;99.90;;;;;;5123718;27;19912;-53
2022/06/24 01:46:19;;;;;;;;;;;15.30;99.90;;;;;;5152349;27;19911;-53
2022/06/24 01:48:58;;;;;;;;;;;15.30;99.90;;;;;;5123770;27;19926;-53
2022/06/24 01:51:40;;;;;;;;;;;15.20;99.90;;;;;;5123906;27;19918;-55
2022/06/24 01:54:22;;;;;;;;;;;15.20;99.90;;;;;;5104089;27;19912;-54
2022/06/24 01:57:01;;;;;;;;;;;15.10;99.90;;;;;;5123872;27;19912;-53
2022/06/24 01:59:41;;;;;;;;;;;15.00;99.90;;;;;;5098044;27;20372;-54
2022/06/24 02:02:21;;;;;;;;;;;15.00;99.90;;;;;;5121300;27;19912;-53
2022/06/24 02:05:01;;;;;;;;;;;14.90;99.90;;;;;;5123992;27;19919;-53
2022/06/24 02:07:40;;;;;;;;;;;14.70;99.90;;;;;;5110486;27;19916;-54
2022/06/24 02:13:27;;;;;;;;;;;14.50;99.90;;;;;;5124313;27;20274;-54
2022/06/24 02:16:09;;;;;;;;;;;14.50;99.90;;;;;;5102995;27;19977;-54
2022/06/24 02:18:49;;;;;;;;;;;14.50;99.90;;;;;;5123564;27;19942;-55
2022/06/24 02:21:29;;;;;;;;;;;14.60;99.90;;;;;;5124339;27;19912;-54
2022/06/24 02:24:08;;;;;;;;;;;14.60;99.90;;;;;;5124866;27;19911;-57
2022/06/24 02:26:48;;;;;;;;;;;14.50;99.90;;;;;;5103032;27;19953;-53
2022/06/24 02:29:28;;;;;;;;;;;14.50;99.90;;;;;;5124634;27;19915;-53
2022/06/24 02:32:09;;;;;;;;;;;14.50;99.90;;;;;;5132622;27;19918;-55
2022/06/24 02:34:49;;;;;;;;;;;14.50;99.90;;;;;;5124263;27;19916;-55
2022/06/24 02:37:29;;;;;;;;;;;14.50;99.90;;;;;;5116584;27;19916;-55
2022/06/24 02:43:11;;;;;;;;;;;14.40;99.90;;;;;;5103208;27;19934;-54
2022/06/24 02:45:52;;;;;;;;;;;14.40;99.90;;;;;;5123551;27;19912;-53
2022/06/24 02:48:33;;;;;;;;;;;14.40;99.90;;;;;;5123776;27;19912;-53
2022/06/24 02:51:14;;;;;;;;;;;14.50;99.90;;;;;;5124497;27;19912;-53
2022/06/24 02:53:55;;;;;;;;;;;14.60;99.90;;;;;;5124386;27;19933;-55
2022/06/24 02:56:35;;;;;;;;;;;14.60;99.90;;;;;;5094129;27;19926;-54
2022/06/24 02:59:15;;;;;;;;;;;14.70;99.90;;;;;;5102546;27;19926;-53
2022/06/24 03:01:55;;;;;;;;;;;14.70;99.90;;;;;;5123391;27;20172;-55
2022/06/24 03:04:34;;;;;;;;;;;14.70;99.90;;;;;;5110004;27;19927;-55
2022/06/24 03:07:14;;;;;;;;;;;14.70;99.90;;;;;;5115505;27;19915;-54
2022/06/24 03:09:54;;;;;;;;;;;14.70;99.90;;;;;;5115249;27;20393;-54
2022/06/24 03:12:34;;;;;;;;;;;14.70;99.90;;;;;;5102323;27;19926;-55
2022/06/24 03:15:14;;;;;;;;;;;14.70;99.90;;;;;;5124850;27;19926;-56
2022/06/24 03:17:54;;;;;;;;;;;14.70;99.90;;;;;;5123119;27;19918;-54
2022/06/24 03:20:33;;;;;;;;;;;14.70;99.90;;;;;;5097102;27;19969;-53
2022/06/24 03:23:13;;;;;;;;;;;14.80;99.90;;;;;;5118154;27;20274;-54
2022/06/24 03:25:53;;;;;;;;;;;14.90;99.90;;;;;;5106833;27;20581;-53
2022/06/24 03:28:33;;;;;;;;;;;14.90;99.90;;;;;;5102208;27;19926;-53
2022/06/24 03:31:14;;;;;;;;;;;15.10;99.90;;;;;;5122160;27;19912;-56
2022/06/24 03:33:55;;;;;;;;;;;15.30;99.90;;;;;;5095966;27;20026;-54
2022/06/24 03:36:36;;;;;;;;;;;15.40;99.90;;;;;;5098586;27;20377;-53
2022/06/24 03:39:16;;;;;;;;;;;15.50;99.90;;;;;;5122745;27;19916;-52
2022/06/24 03:41:55;;;;;;;;;;;15.70;99.90;;;;;;5123801;27;20258;-55
2022/06/24 03:44:35;;;;;;;;;;;15.90;99.90;;;;;;5122072;27;20395;-56
2022/06/24 03:47:15;;;;;;;;;;;16.10;99.90;;;;;;5114723;27;19912;-55
2022/06/24 03:49:55;;;;;;;;;;;16.30;99.90;;;;;;5103620;27;19916;-55
2022/06/24 03:52:35;;;;;;;;;;;16.50;99.90;;;;;;5123815;27;19916;-54
2022/06/24 03:55:14;;;;;;;;;;;16.70;99.90;;;;;;5087159;27;20324;-54
2022/06/24 03:57:54;;;;;;;;;;;16.90;99.90;;;;;;5122277;27;20380;-53
2022/06/24 04:00:34;;;;;;;;;;;17.00;99.90;;;;;;5099156;27;19912;-54
2022/06/24 04:03:14;;;;;;;;;;;17.10;99.90;;;;;;5114752;27;19912;-53
2022/06/24 04:05:54;;;;;;;;;;;17.20;99.90;;;;;;5122257;27;19916;-53
2022/06/24 04:08:34;;;;;;;;;;;17.40;99.90;;;;;;5078059;27;19917;-54
2022/06/24 04:11:14;;;;;;;;;;;17.70;99.90;;;;;;5123625;27;19912;-54
2022/06/24 04:13:55;;;;;;;;;;;18.10;99.90;;;;;;5153600;27;19911;-54
2022/06/24 04:16:35;;;;;;;;;;;18.70;99.90;;;;;;5122713;27;19915;-53
2022/06/24 04:19:14;;;;;;;;;;;20.20;99.90;;;;;;5122445;27;19918;-53
2022/06/24 04:21:54;;;;;;;;;;;21.30;99.90;;;;;;5123658;27;20266;-54
2022/06/24 04:24:34;;;;;;;;;;;22.00;99.90;;;;;;5140754;27;19919;-53
2022/06/24 04:27:14;;;;;;;;;;;23.00;99.90;;;;;;5121816;27;19922;-55
2022/06/24 04:29:58;;;;;;;;;;;23.60;99.90;;;;;;5124305;27;20164;-54
2022/06/24 04:32:39;;;;;;;;;;;23.20;99.90;;;;;;5103924;27;19912;-53
2022/06/24 04:35:18;;;;;;;;;;;22.50;99.90;;;;;;5083054;27;19934;-55
2022/06/24 04:37:58;;;;;;;;;;;21.90;99.90;;;;;;5092518;27;19917;-54
2022/06/24 04:40:38;;;;;;;;;;;21.70;99.90;;;;;;5122572;27;19926;-52
2022/06/24 04:43:18;;;;;;;;;;;21.70;99.90;;;;;;5124610;27;19912;-52
2022/06/24 04:45:58;;;;;;;;;;;22.10;99.90;;;;;;5157176;27;19915;-53
2022/06/24 04:48:37;;;;;;;;;;;22.00;99.90;;;;;;5120145;27;19916;-52
2022/06/24 04:51:17;;;;;;;;;;;21.80;99.90;;;;;;5103895;27;19927;-53
2022/06/24 04:53:57;;;;;;;;;;;21.60;99.90;;;;;;5123544;27;20053;-52
2022/06/24 04:56:37;;;;;;;;;;;21.60;99.90;;;;;;5123781;27;19915;-55
2022/06/24 04:59:17;;;;;;;;;;;21.70;99.90;;;;;;5123915;27;19915;-52
2022/06/24 05:01:57;;;;;;;;;;;21.80;99.90;;;;;;5124226;27;19918;-53
2022/06/24 05:04:36;;;;;;;;;;;21.80;99.90;;;;;;5098547;27;20435;-53
2022/06/24 05:07:16;;;;;;;;;;;21.60;99.90;;;;;;5110185;27;19916;-54
2022/06/24 05:09:56;;;;;;;;;;;21.50;99.90;;;;;;5123585;27;19916;-53
2022/06/24 05:12:36;;;;;;;;;;;21.40;99.90;;;;;;5122127;27;19915;-51
2022/06/24 05:15:16;;;;;;;;;;;21.30;99.90;;;;;;5124356;27;19916;-56
2022/06/24 05:17:55;;;;;;;;;;;21.20;99.90;;;;;;5107662;27;19926;-56
2022/06/24 05:20:35;;;;;;;;;;;21.10;99.90;;;;;;5097606;27;19966;-52
2022/06/24 05:23:15;;;;;;;;;;;21.10;99.90;;;;;;5122219;27;20289;-53
2022/06/24 05:26:07;;;;;;;;;;;21.10;99.90;;;;;;5107751;27;20324;-52
2022/06/24 05:28:47;;;;;;;;;;;21.00;99.90;;;;;;5124130;27;19922;-53
2022/06/24 05:31:26;;;;;;;;;;;20.90;99.90;;;;;;5123265;27;19922;-55
2022/06/24 05:34:07;;;;;;;;;;;20.90;99.90;;;;;;5118700;27;20078;-55
2022/06/24 05:36:46;;;;;;;;;;;20.60;99.90;;;;;;5115567;27;19973;-54
2022/06/24 05:39:26;;;;;;;;;;;20.40;99.90;;;;;;5123092;27;20517;-52
2022/06/24 05:42:06;;;;;;;;;;;20.20;99.90;;;;;;5144057;27;19918;-53
2022/06/24 05:44:46;;;;;;;;;;;20.10;99.90;;;;;;5124409;27;19918;-54
2022/06/24 05:47:25;;;;;;;;;;;19.90;99.90;;;;;;5113537;27;19916;-53
2022/06/24 05:50:06;;;;;;;;;;;19.50;99.90;;;;;;5103489;27;20335;-55
2022/06/24 05:55:44;;;;;;;;;;;19.00;99.90;;;;;;5122769;27;19926;-54
2022/06/24 05:58:24;;;;;;;;;;;18.70;99.90;;;;;;5105515;27;19912;-53
2022/06/24 06:01:10;;;;;;;;;;;18.50;99.90;;;;;;5124534;27;20399;-54
2022/06/24 06:03:50;;;;;;;;;;;18.30;99.90;;;;;;5101966;27;19970;-53
2022/06/24 06:06:30;;;;;;;;;;;18.10;99.90;;;;;;5121795;27;19912;-56
2022/06/24 06:09:10;;;;;;;;;;;18.00;99.90;;;;;;5124436;27;20539;-53
2022/06/24 06:11:51;;;;;;;;;;;17.90;99.90;;;;;;5124534;27;19915;-54
2022/06/24 06:14:31;;;;;;;;;;;17.80;99.90;;;;;;5102796;27;19916;-51
2022/06/24 06:17:12;;;;;;;;;;;17.80;99.90;;;;;;5108558;27;19930;-57
2022/06/24 06:19:52;;;;;;;;;;;17.80;99.90;;;;;;5140335;27;19915;-57
2022/06/24 06:22:32;;;;;;;;;;;17.80;99.90;;;;;;5121763;27;19912;-54
2022/06/24 06:25:14;;;;;;;;;;;17.80;99.90;;;;;;5102909;27;19912;-54
2022/06/24 06:27:55;;;;;;;;;;;17.90;99.90;;;;;;5108684;27;19912;-53
2022/06/24 06:30:35;;;;;;;;;;;18.00;99.90;;;;;;5083286;28;19912;-54
2022/06/24 06:33:15;;;;;;;;;;;18.00;99.90;;;;;;5121569;27;20439;-53
2022/06/24 06:36:01;;;;;;;;;;;18.10;99.90;;;;;;5110300;27;19912;-52
2022/06/24 06:38:42;;;;;;;;;;;18.10;99.90;;;;;;5102329;27;19926;-54
2022/06/24 06:41:22;;;;;;;;;;;18.20;99.90;;;;;;5123980;27;19916;-56
2022/06/24 06:44:02;;;;;;;;;;;18.20;99.90;;;;;;5124797;27;19911;-52
2022/06/24 06:46:45;;;;;;;;;;;18.20;99.90;;;;;;5122746;27;19912;-54
2022/06/24 06:49:26;;;;;;;;;;;18.20;99.90;;;;;;5124451;27;19925;-53
2022/06/24 06:52:07;;;;;;;;;;;18.20;99.90;;;;;;5124696;27;19916;-53
2022/06/24 06:54:48;;;;;;;;;;;18.10;99.90;;;;;;5124465;27;20523;-54
2022/06/24 06:57:27;;;;;;;;;;;18.00;99.90;;;;;;5149873;22;21909;-55
2022/06/24 07:00:09;;;;;;;;;;;18.00;99.90;;;;;;5118043;27;20384;-55
2022/06/24 07:02:49;;;;;;;;;;;17.90;99.90;;;;;;5124615;27;19918;-55
2022/06/24 07:05:28;;;;;;;;;;;17.90;99.90;;;;;;5124216;27;20144;-54
2022/06/24 07:08:08;;;;;;;;;;;18.00;99.90;;;;;;5124017;27;19915;-55
2022/06/24 07:10:48;;;;;;;;;;;18.10;99.90;;;;;;5083685;28;20463;-54
2022/06/24 07:13:28;;;;;;;;;;;18.30;99.90;;;;;;5104382;27;20319;-55
2022/06/24 07:16:10;;;;;;;;;;;18.50;99.90;;;;;;5144241;27;19911;-54
2022/06/24 07:18:51;;;;;;;;;;;18.60;99.90;;;;;;5124750;27;19912;-55
2022/06/24 07:21:31;;;;;;;;;;;18.90;99.90;;;;;;5103929;27;19926;-54
2022/06/24 07:24:11;;;;;;;;;;;19.30;99.90;;;;;;5124892;27;19916;-55
2022/06/24 07:26:50;;;;;;;;;;;19.50;99.90;;;;;;5103012;27;19912;-56
2022/06/24 07:29:31;;;;;;;;;;;19.80;99.90;;;;;;5124496;27;19912;-54
2022/06/24 07:32:13;;;;;;;;;;;20.10;99.90;;;;;;5103379;27;19916;-54
2022/06/24 07:34:53;;;;;;;;;;;20.50;99.90;;;;;;5123990;27;20506;-54
2022/06/24 07:37:33;;;;;;;;;;;20.70;99.90;;;;;;5123529;27;20394;-54
2022/06/24 07:40:15;;;;;;;;;;;21.00;99.90;;;;;;5124324;27;19918;-54
2022/06/24 07:42:56;;;;;;;;;;;21.40;99.90;;;;;;5124817;27;19918;-54
2022/06/24 07:45:36;;;;;;;;;;;22.00;99.90;;;;;;5123957;27;19916;-55
2022/06/24 07:48:17;;;;;;;;;;;22.60;99.90;;;;;;5105446;27;20282;-55
2022/06/24 07:50:57;;;;;;;;;;;23.00;99.90;;;;;;5124899;27;19912;-54
2022/06/24 07:53:37;;;;;;;;;;;23.40;99.90;;;;;;5104156;27;19912;-54
2022/06/24 07:59:14;;;;;;;;;;;23.70;99.90;;;;;;5083436;28;19917;-54
2022/06/24 08:01:54;;;;;;;;;;;23.90;99.90;;;;;;5124165;27;20277;-56
2022/06/24 08:04:35;;;;;;;;;;;24.10;99.90;;;;;;5124476;27;19922;-55
2022/06/24 08:07:15;;;;;;;;;;;24.50;99.90;;;;;;5101809;27;19969;-54
2022/06/24 08:09:55;;;;;;;;;;;24.70;99.90;;;;;;5124334;27;19915;-55
2022/06/24 08:12:35;;;;;;;;;;;25.20;99.90;;;;;;5103903;27;19930;-54
2022/06/24 08:15:16;;;;;;;;;;;25.50;99.90;;;;;;5083926;28;19912;-55
2022/06/24 08:17:56;;;;;;;;;;;25.70;99.90;;;;;;5116374;27;19916;-55
2022/06/24 08:20:36;;;;;;;;;;;25.90;99.90;;;;;;5124456;27;20313;-55
2022/06/24 08:23:16;;;;;;;;;;;26.10;99.90;;;;;;5125410;27;19912;-54
2022/06/24 08:25:56;;;;;;;;;;;26.30;99.90;;;;;;5123678;27;19912;-55
2022/06/24 08:28:35;;;;;;;;;;;26.50;99.90;;;;;;5124403;27;19918;-55
2022/06/24 08:31:15;;;;;;;;;;;26.20;99.90;;;;;;5124695;27;19916;-54
2022/06/24 08:33:55;;;;;;;;;;;25.60;99.90;;;;;;5124511;27;19945;-54
2022/06/24 08:36:36;;;;;;;;;;;25.00;99.90;;;;;;5123278;27;20296;-54
2022/06/24 08:39:16;;;;;;;;;;;24.40;99.90;;;;;;5104164;27;19919;-54
2022/06/24 08:41:57;;;;;;;;;;;24.10;99.90;;;;;;5124381;27;19912;-55
2022/06/24 08:44:38;;;;;;;;;;;23.80;99.90;;;;;;5104646;27;20286;-54
2022/06/24 08:47:19;;;;;;;;;;;23.50;99.90;;;;;;5121086;27;19912;-55
2022/06/24 08:49:59;;;;;;;;;;;23.50;99.90;;;;;;5103914;27;19928;-53
2022/06/24 08:52:40;;;;;;;;;;;23.50;99.90;;;;;;5124838;27;19929;-54
2022/06/24 08:55:21;;;;;;;;;;;23.40;99.90;;;;;;5124684;27;19912;-55
2022/06/24 08:58:05;;;;;;;;;;;23.40;99.90;;;;;;5123630;27;19912;-54
2022/06/24 09:00:46;;;;;;;;;;;23.40;99.90;;;;;;5124148;27;19915;-55
2022/06/24 09:03:26;;;;;;;;;;;23.50;99.90;;;;;;5124652;27;19953;-54
2022/06/24 09:06:12;;;;;;;;;;;23.60;99.90;;;;;;5083015;28;20377;-54
2022/06/24 09:08:53;;;;;;;;;;;23.60;99.90;;;;;;5124586;27;19916;-53
2022/06/24 09:11:39;;;;;;;;;;;24.00;99.90;;;;;;5124304;27;20083;-54
2022/06/24 09:14:19;;;;;;;;;;;24.00;99.90;;;;;;5124541;27;20504;-55
2022/06/24 09:16:59;;;;;;;;;;;23.70;99.90;;;;;;5123912;27;20427;-55
2022/06/24 09:19:39;;;;;;;;;;;23.50;99.90;;;;;;5124261;27;20172;-54
2022/06/24 09:22:23;;;;;;;;;;;23.30;99.90;;;;;;5124759;27;19915;-55
2022/06/24 09:25:04;;;;;;;;;;;23.00;99.90;;;;;;5103826;27;19924;-54
2022/06/24 09:27:46;;;;;;;;;;;22.90;99.90;;;;;;5117626;27;19918;-54
2022/06/24 09:30:34;;;;;;;;;;;23.20;99.90;;;;;;5124946;27;19946;-54
2022/06/24 09:33:17;;;;;;;;;;;23.60;99.90;;;;;;5124548;27;20312;-55
2022/06/24 09:36:01;;;;;;;;;;;24.00;99.90;;;;;;5124288;27;19919;-54
2022/06/24 09:38:59;;;;;;;;;;;24.60;99.90;;;;;;5124918;27;19915;-54
2022/06/24 09:41:47;;;;;;;;;;;25.40;99.90;;;;;;5124187;27;19912;-55
2022/06/24 09:44:27;;;;;;;;;;;26.30;99.90;;;;;;5104180;27;19954;-56
2022/06/24 09:47:09;;;;;;;;;;;27.10;99.90;;;;;;5144696;27;19912;-55
2022/06/24 09:49:57;;;;;;;;;;;27.50;99.90;;;;;;5124412;27;19912;-54
2022/06/24 09:52:40;;;;;;;;;;;27.40;99.90;;;;;;5104234;27;20157;-54
2022/06/24 09:55:19;;;;;;;;;;;27.40;99.90;;;;;;5104221;27;19926;-55
2022/06/24 09:58:00;;;;;;;;;;;27.50;99.90;;;;;;5116468;27;19916;-54
2022/06/24 10:00:41;;;;;;;;;;;27.10;99.90;;;;;;5161654;27;20380;-54
2022/06/24 10:03:22;;;;;;;;;;;26.80;99.90;;;;;;5124973;27;20193;-55
2022/06/24 10:06:03;;;;;;;;;;;26.50;99.90;;;;;;5124039;27;19918;-54
2022/06/24 10:08:44;;;;;;;;;;;26.30;99.90;;;;;;5124633;27;19922;-55
2022/06/24 10:11:26;;;;;;;;;;;25.80;99.90;;;;;;5104099;27;20381;-54
2022/06/24 10:14:07;;;;;;;;;;;25.50;99.90;;;;;;5125110;27;19912;-55
2022/06/24 10:16:49;;;;;;;;;;;25.30;99.90;;;;;;5127395;27;19920;-55
2022/06/24 10:19:29;;;;;;;;;;;25.00;99.90;;;;;;5083638;27;19926;-54
2022/06/24 10:22:10;;;;;;;;;;;24.90;99.90;;;;;;5124641;27;20258;-55
2022/06/24 10:24:50;;;;;;;;;;;24.80;99.90;;;;;;5125220;27;19912;-54
2022/06/24 10:27:43;;;;;;;;;;;24.70;99.90;;;;;;5103296;27;19926;-55
2022/06/24 10:30:53;;;;;;;;;;;24.50;99.90;;;;;;5124660;27;20331;-54
2022/06/24 10:33:33;;;;;;;;;;;24.30;99.90;;;;;;5125884;27;20327;-54
2022/06/24 10:36:13;;;;;;;;;;;24.30;99.90;;;;;;5124303;27;19929;-55
2022/06/24 10:38:53;;;;;;;;;;;24.00;99.90;;;;;;5145233;27;19911;-55
2022/06/24 10:41:38;;;;;;;;;;;23.70;99.90;;;;;;5103872;27;19916;-55
2022/06/24 10:44:23;;;;;;;;;;;23.30;99.90;;;;;;5125153;27;19912;-55
2022/06/24 10:47:20;;;;;;;;;;;22.90;99.90;;;;;;5082477;28;19916;-56
2022/06/24 10:50:21;;;;;;;;;;;22.40;99.90;;;;;;5099953;27;19934;-54
2022/06/24 10:53:02;;;;;;;;;;;22.00;99.90;;;;;;5161268;27;20308;-55
2022/06/24 10:55:43;;;;;;;;;;;21.60;99.90;;;;;;5083429;28;19913;-54
2022/06/24 10:58:23;;;;;;;;;;;21.50;99.90;;;;;;5124535;27;19916;-54
2022/06/24 11:01:06;;;;;;;;;;;21.30;99.90;;;;;;5161464;27;20329;-55
2022/06/24 11:03:47;;;;;;;;;;;21.30;99.90;;;;;;5084436;28;19921;-54
2022/06/24 11:06:27;;;;;;;;;;;21.30;99.90;;;;;;5123950;27;19915;-54
2022/06/24 11:09:07;;;;;;;;;;;21.30;99.90;;;;;;5124190;27;19915;-55
2022/06/24 11:11:48;;;;;;;;;;;21.20;99.90;;;;;;5103119;27;20401;-54
2022/06/24 11:14:28;;;;;;;;;;;21.20;99.90;;;;;;5124601;27;19911;-55
2022/06/24 11:17:11;;;;;;;;;;;21.30;99.90;;;;;;5080992;28;19912;-55
2022/06/24 11:19:51;;;;;;;;;;;21.50;99.90;;;;;;5123404;27;19912;-54
2022/06/24 11:22:31;;;;;;;;;;;21.90;99.90;;;;;;5122750;27;20388;-54
2022/06/24 11:25:11;;;;;;;;;;;22.50;99.90;;;;;;5122522;27;19916;-55
2022/06/24 11:27:52;;;;;;;;;;;23.10;99.90;;;;;;5115477;27;19912;-54
2022/06/24 11:30:32;;;;;;;;;;;23.30;99.90;;;;;;5122996;27;19915;-55
2022/06/24 11:33:13;;;;;;;;;;;23.40;99.90;;;;;;5123727;27;19912;-54
2022/06/24 11:35:53;;;;;;;;;;;23.50;99.90;;;;;;5126560;27;20520;-54
2022/06/24 11:38:36;;;;;;;;;;;23.50;99.90;;;;;;5068470;28;20297;-55
2022/06/24 11:41:22;;;;;;;;;;;23.50;99.90;;;;;;5124677;27;20373;-54
2022/06/24 11:44:02;;;;;;;;;;;23.60;99.90;;;;;;5124742;27;19912;-54
2022/06/24 11:46:48;;;;;;;;;;;23.40;99.90;;;;;;5102877;27;20434;-54
2022/06/24 11:49:30;;;;;;;;;;;23.10;99.90;;;;;;5113003;27;20405;-55
2022/06/24 11:52:11;;;;;;;;;;;22.50;99.90;;;;;;5124992;27;19912;-55
2022/06/24 11:54:51;;;;;;;;;;;22.00;99.90;;;;;;5124717;27;19927;-54
2022/06/24 11:57:31;;;;;;;;;;;21.70;99.90;;;;;;5121990;27;20315;-55
2022/06/24 12:00:12;;;;;;;;;;;21.50;99.90;;;;;;5123554;27;20381;-54
2022/06/24 12:02:53;;;;;;;;;;;21.50;99.90;;;;;;5145215;27;19911;-54
2022/06/24 12:05:34;;;;;;;;;;;21.50;99.90;;;;;;5103902;27;19927;-55
2022/06/24 12:08:15;;;;;;;;;;;21.80;99.90;;;;;;5104293;27;19927;-54
2022/06/24 12:10:56;;;;;;;;;;;22.20;99.90;;;;;;5103777;27;19934;-54
2022/06/24 12:13:36;;;;;;;;;;;23.00;99.90;;;;;;5124611;27;19919;-55
2022/06/24 12:16:16;;;;;;;;;;;23.80;99.90;;;;;;5124190;27;19916;-55
2022/06/24 12:18:56;;;;;;;;;;;24.60;99.90;;;;;;5124511;27;19913;-54
2022/06/24 12:21:37;;;;;;;;;;;25.20;99.90;;;;;;5124406;27;20282;-55
2022/06/24 12:24:21;;;;;;;;;;;25.50;99.90;;;;;;5084043;28;19912;-54
2022/06/24 12:27:04;;;;;;;;;;;25.60;99.90;;;;;;5123491;27;19953;-55
2022/06/24 12:29:43;;;;;;;;;;;25.40;99.90;;;;;;5123779;27;19916;-54
2022/06/24 12:32:23;;;;;;;;;;;25.30;99.90;;;;;;5124343;27;19922;-54
2022/06/24 12:35:03;;;;;;;;;;;25.00;99.90;;;;;;5101782;27;20234;-54
2022/06/24 12:37:53;;;;;;;;;;;25.00;99.90;;;;;;5120116;27;19922;-55
2022/06/24 12:40:34;;;;;;;;;;;24.90;99.90;;;;;;5123482;27;19912;-54
2022/06/24 12:43:14;;;;;;;;;;;24.80;99.90;;;;;;5102679;27;19950;-54
2022/06/24 12:45:53;;;;;;;;;;;24.50;99.90;;;;;;5144643;27;20281;-54
2022/06/24 12:51:27;;;;;;;;;;;24.30;99.90;;;;;;5123811;27;19912;-54
2022/06/24 12:54:07;;;;;;;;;;;24.40;99.90;;;;;;5124677;27;19934;-54
2022/06/24 12:56:47;;;;;;;;;;;24.90;99.90;;;;;;5123847;27;20525;-55
2022/06/24 12:59:30;;;;;;;;;;;25.30;99.90;;;;;;5146425;22;20197;-53
2022/06/24 13:02:11;;;;;;;;;;;25.60;99.90;;;;;;5103278;27;20009;-53
2022/06/24 13:04:51;;;;;;;;;;;25.70;99.90;;;;;;5123903;27;19981;-53
2022/06/24 13:07:31;;;;;;;;;;;25.70;99.90;;;;;;5121722;27;20556;-54
2022/06/24 13:10:11;;;;;;;;;;;25.90;99.90;;;;;;5123424;27;19922;-54
2022/06/24 13:12:51;;;;;;;;;;;26.20;99.90;;;;;;5124095;27;19916;-54
2022/06/24 13:15:31;;;;;;;;;;;26.60;99.90;;;;;;5124721;27;19912;-54
2022/06/24 13:18:11;;;;;;;;;;;27.20;99.90;;;;;;5124050;27;19912;-55
2022/06/24 13:20:50;;;;;;;;;;;27.90;99.90;;;;;;5104053;27;20270;-53
2022/06/24 13:23:30;;;;;;;;;;;28.40;99.90;;;;;;5103935;27;20396;-54
2022/06/24 13:26:11;;;;;;;;;;;28.90;99.90;;;;;;5123979;27;19926;-55
2022/06/24 13:28:51;;;;;;;;;;;28.80;99.90;;;;;;5124134;27;20108;-54
2022/06/24 13:31:31;;;;;;;;;;;28.50;99.90;;;;;;5124078;27;20380;-54
2022/06/24 13:34:11;;;;;;;;;;;28.50;99.90;;;;;;5124412;27;19911;-53
2022/06/24 13:36:51;;;;;;;;;;;28.20;99.90;;;;;;5123562;27;19918;-54
2022/06/24 13:39:31;;;;;;;;;;;28.10;99.90;;;;;;5124057;27;19926;-54
2022/06/24 13:42:10;;;;;;;;;;;28.00;99.90;;;;;;5124703;27;19912;-54
2022/06/24 13:44:52;;;;;;;;;;;27.70;99.90;;;;;;5123878;27;19916;-55
2022/06/24 13:47:32;;;;;;;;;;;27.50;99.90;;;;;;5102951;27;19926;-53
2022/06/24 13:50:12;;;;;;;;;;;27.30;99.90;;;;;;5124139;27;19918;-54
2022/06/24 13:52:51;;;;;;;;;;;27.40;99.90;;;;;;5124780;27;19922;-53
2022/06/24 13:55:32;;;;;;;;;;;27.80;99.90;;;;;;5103749;27;20292;-53
2022/06/24 13:58:13;;;;;;;;;;;28.80;97.50;;;;;;5120599;27;19912;-55
2022/06/24 14:00:56;;;;;;;;;;;29.60;96.70;;;;;;5121333;27;19934;-55
2022/06/24 14:03:35;;;;;;;;;;;29.80;80.10;;;;;;5144706;27;19911;-54
2022/06/24 14:06:17;;;;;;;;;;;29.30;78.40;;;;;;5103194;27;19953;-55
2022/06/24 14:08:57;;;;;;;;;;;28.60;80.90;;;;;;5113964;27;19916;-54
2022/06/24 14:11:37;;;;;;;;;;;28.00;91.60;;;;;;5123923;27;19923;-53
2022/06/24 14:14:17;;;;;;;;;;;27.30;81.30;;;;;;5123317;27;19918;-53
2022/06/24 14:16:58;;;;;;;;;;;26.80;93.20;;;;;;5122968;27;19916;-54
2022/06/24 14:19:38;;;;;;;;;;;26.70;99.70;;;;;;5107180;27;19920;-55
2022/06/24 14:22:17;;;;;;;;;;;26.70;99.30;;;;;;5124638;27;19916;-56
2022/06/24 14:24:58;;;;;;;;;;;26.70;99.90;;;;;;5124579;27;19918;-54
2022/06/24 14:27:37;;;;;;;;;;;26.90;99.90;;;;;;5103599;27;19926;-55
2022/06/24 14:30:17;;;;;;;;;;;26.90;99.90;;;;;;5124575;27;19912;-56
2022/06/24 14:32:57;;;;;;;;;;;26.70;99.90;;;;;;5120132;27;19916;-56
2022/06/24 14:35:37;;;;;;;;;;;26.50;99.90;;;;;;5102015;27;19957;-54
2022/06/24 14:41:14;;;;;;;;;;;25.90;99.90;;;;;;5124528;27;20548;-55
2022/06/24 14:43:54;;;;;;;;;;;25.60;99.90;;;;;;5084547;28;19916;-53
2022/06/24 14:46:34;;;;;;;;;;;25.20;99.90;;;;;;5124128;27;20296;-54
2022/06/24 14:49:13;;;;;;;;;;;25.00;99.90;;;;;;5112735;27;19912;-54
2022/06/24 14:51:53;;;;;;;;;;;25.00;99.90;;;;;;5103914;27;20303;-54
2022/06/24 14:54:33;;;;;;;;;;;25.10;99.90;;;;;;5123837;27;19911;-55
2022/06/24 14:57:14;;;;;;;;;;;25.20;99.90;;;;;;5103505;27;19916;-56
2022/06/24 14:59:55;;;;;;;;;;;25.40;99.90;;;;;;5104530;27;19916;-54
2022/06/24 15:02:37;;;;;;;;;;;25.70;99.90;;;;;;5124796;27;19918;-55
2022/06/24 15:05:17;;;;;;;;;;;26.20;99.90;;;;;;5104222;27;19966;-56
2022/06/24 15:07:57;;;;;;;;;;;26.60;99.90;;;;;;5118605;27;20281;-57
2022/06/24 15:10:37;;;;;;;;;;;26.70;99.90;;;;;;5123217;27;19916;-54
2022/06/24 15:13:17;;;;;;;;;;;26.70;99.90;;;;;;5123387;27;19912;-55
2022/06/24 15:15:57;;;;;;;;;;;26.60;99.90;;;;;;5103360;27;19950;-54
2022/06/24 15:18:36;;;;;;;;;;;26.20;99.90;;;;;;5124147;27;19912;-56
2022/06/24 15:21:17;;;;;;;;;;;26.00;99.90;;;;;;5083245;28;19912;-54
2022/06/24 15:23:57;;;;;;;;;;;25.90;99.90;;;;;;5124530;27;19916;-56
2022/06/24 15:26:37;;;;;;;;;;;25.70;99.90;;;;;;5123643;27;19923;-56
2022/06/24 15:29:17;;;;;;;;;;;25.70;99.90;;;;;;5111738;27;19913;-55
2022/06/24 15:31:57;;;;;;;;;;;25.70;99.90;;;;;;5124261;27;20319;-55
2022/06/24 15:34:37;;;;;;;;;;;25.60;99.90;;;;;;5104077;27;19927;-55
2022/06/24 15:37:19;;;;;;;;;;;25.40;99.90;;;;;;5138870;27;19972;-53
2022/06/24 15:40:00;;;;;;;;;;;25.40;99.90;;;;;;5125498;27;19916;-55
2022/06/24 15:42:39;;;;;;;;;;;25.40;99.90;;;;;;5124571;27;19912;-56
2022/06/24 15:45:19;;;;;;;;;;;25.40;99.90;;;;;;5124350;27;19925;-55
2022/06/24 15:47:59;;;;;;;;;;;25.40;99.90;;;;;;5121311;27;19953;-55
2022/06/24 15:50:39;;;;;;;;;;;25.60;99.90;;;;;;5123549;27;20335;-55
2022/06/24 15:53:19;;;;;;;;;;;25.40;99.90;;;;;;5123227;27;20299;-55